Iola, Wisconsin
Current Conditions -  °F | °C
As of 12:15 PM on Thursday 27 Nov 2014 (Local Time) from KPCZ Reporting Station
Clear Clear  
Wind Chill: 10°   Ceiling: Unl
Heat Index: 20°   Visibility: 10mi
Dew Point:   Wind: 9mph
Humidity: 60%   Direction: 310°NW
Pressure: 30.37"   Gusts: NA
Location:  44.51°N, 89.13°W
Report Text: KPCZ 271815Z AUTO 31008KT 10SM CLR M06/M13 A3037 RMK AO2 T10651132
Loading
Personal Weather Stations






























Interactive Weather Map New forecast layout! Learn more

10-Day Weather Forecast

Advertisements
Track Severe Weather on mobile